METAR Data
IDs: Format: Raw Decoded Include TAF

Data at: 1716 UTC 21 Sep 2018

KRPH 211650Z AUTO 15005KT 10SM SCT011 SCT018 26/24 A2994 RMK AO2 T02600243
KRPH 211630Z AUTO 14008KT 110V170 10SM SCT011 BKN016 BKN048 26/24 A2995 RMK AO2 T02550241
KRPH 211610Z AUTO 14003KT 10SM SCT009 BKN048 25/24 A2995 RMK AO2 T02500241
KRPH 211550Z AUTO 13003KT 10SM SCT007 SCT048 25/24 A2995 RMK AO2 P0001 T02470240
KRPH 211530Z AUTO 13005KT 7SM SCT007 24/24 A2994 RMK AO2 P0001 T02420240
KRPH 211510Z AUTO 13004KT 5SM -DZ SCT007 SCT011 24/24 A2994 RMK AO2 P0001 T02370236
KRPH 211450Z AUTO 12004KT 5SM -RA SCT007 BKN011 BKN017 23/23 A2994 RMK AO2 P0004 60004 T02340234
KRPH 211430Z AUTO 12005KT 5SM -RA OVC007 23/23 A2994 RMK AO2 P0003 T02320232
KRPH 211410Z AUTO 08003KT 5SM -RA BKN007 OVC039 23/23 A2994 RMK AO2 P0001 T02310231
KRPH 211350Z AUTO 00000KT 5SM BR SCT007 SCT010 BKN039 23/23 A2994 RMK AO2 T02300230
KRPH 211330Z AUTO 12003KT 7SM SCT007 23/23 A2993 RMK AO2 T02300230
KRPH 211310Z AUTO 12003KT 7SM CLR 23/23 A2993 RMK AO2 T02280228
KRPH 211250Z AUTO 12005KT 10SM SCT005 SCT009 SCT050 23/23 A2992 RMK AO2 P0004 T02300230
KRPH 211230Z AUTO 12005KT 5SM RA OVC009 23/23 A2990 RMK AO2 P0003 T02270226
KRPH 211210Z AUTO 13004KT 7SM DZ BKN007 BKN014 23/23 A2990 RMK AO2 T02270227
KRPH 211150Z AUTO 12005KT 7SM DZ SCT006 BKN018 23/23 A2990 RMK AO2 T02270226 10230 20222
KRPH 211130Z AUTO 13004KT 10SM SCT013 BKN020 BKN065 23/23 A2990 RMK AO2 T02280225
KRPH 211110Z AUTO 12004KT 10SM SCT006 SCT013 BKN022 23/23 A2991 RMK AO2 T02260225
KRPH 211050Z AUTO 13004KT 10SM RA SCT017 BKN022 23/22 A2990 RMK AO2 T02270224
KRPH 211030Z AUTO 13004KT 10SM BKN020 23/22 A2990 RMK AO2 T02270223
KRPH 211010Z AUTO 13005KT 10SM SCT013 BKN020 23/22 A2990 RMK AO2 T02270223
KRPH 210950Z AUTO 12004KT 10SM BKN013 OVC020 23/22 A2990 RMK AO2 T02280222
KRPH 210930Z AUTO 13004KT 10SM OVC013 23/22 A2990 RMK AO2 T02300222
KRPH 210910Z AUTO 13006KT 10SM OVC013 23/22 A2990 RMK AO2 T02280220
KRPH 210850Z AUTO 13005KT 10SM OVC013 23/22 A2990 RMK AO2 T02280220
KRPH 210830Z AUTO 14003KT 10SM OVC013 23/22 A2990 RMK AO2 T02300221
KRPH 210810Z AUTO 14004KT 10SM OVC011 23/22 A2991 RMK AO2 T02270220
KRPH 210750Z AUTO 14007KT 10SM OVC011 23/22 A2990 RMK AO2 T02260219
KRPH 210730Z AUTO 14005KT 10SM OVC011 23/22 A2991 RMK AO2 T02250217
KRPH 210710Z AUTO 16004KT 10SM OVC011 23/22 A2991 RMK AO2 T02250216
KRPH 210650Z AUTO 15005KT 10SM BKN013 23/22 A2990 RMK AO2 T02250216
KRPH 210630Z AUTO 16006KT 130V190 10SM SCT011 22/22 A2990 RMK AO2 T02230216
KRPH 210610Z AUTO 15006KT 10SM CLR 22/22 A2990 RMK AO2 T02220216
KRPH 210550Z AUTO 15005KT 10SM -RA CLR 22/22 A2991 RMK AO2 P0001 60001 T02220215 10235 20221 403300221
KRPH 210530Z AUTO 15006KT 10SM SCT070 22/22 A2991 RMK AO2 P0001 T02210215
KRPH 210510Z AUTO 16005KT 10SM SCT046 SCT070 22/22 A2992 RMK AO2 P0001 T02220216
KRPH 210450Z AUTO 15006KT 10SM SCT006 SCT029 SCT034 22/22 A2992 RMK AO2 P0001 T02230217
KRPH 210430Z AUTO 15007KT 10SM SCT006 23/22 A2992 RMK AO2 T02250217
KRPH 210410Z AUTO 14007KT 10SM CLR 23/22 A2993 RMK AO2 T02270220
KRPH 210350Z AUTO 14008KT 10SM SCT008 SCT110 23/22 A2993 RMK AO2 T02270220
KRPH 210330Z AUTO 14006KT 10SM RA SCT006 23/22 A2993 RMK AO2 T02320215
KRPH 210310Z AUTO 14006KT 10SM CLR 23/22 A2993 RMK AO2 T02330215
KRPH 210250Z AUTO 15008KT 10SM SCT035 SCT046 SCT060 23/21 A2993 RMK AO2 T02300213
KRPH 210230Z AUTO 14006KT 10SM SCT090 23/21 A2993 RMK AO2 T02270210
KRPH 210210Z AUTO 13006KT 10SM SCT090 23/21 A2992 RMK AO2 T02260210
KRPH 210150Z AUTO 12004KT 10SM SCT080 23/21 A2991 RMK AO2 T02250206
KRPH 210130Z AUTO 12003KT 10SM SCT080 23/20 A2990 RMK AO2 T02250203
KRPH 210110Z AUTO 13005KT 10SM SCT080 23/20 A2989 RMK AO2 T02250202
KRPH 210050Z AUTO 12005KT 10SM SCT080 SCT090 23/20 A2989 RMK AO2 T02250200
KRPH 210030Z AUTO 11005KT 10SM CLR 22/20 A2988 RMK AO2 T02230202
KRPH 210010Z AUTO 11006KT 10SM CLR 22/21 A2988 RMK AO2 T02210205
KRPH 202350Z AUTO 12007KT 10SM -DZ CLR 22/21 A2988 RMK AO2 T02230207 10330 20222
KRPH 202330Z AUTO 13006KT 10SM RA SCT009 SCT060 SCT080 23/21 A2988 RMK AO2 T02280208
KRPH 202310Z AUTO 13010G14KT 10SM SCT060 SCT080 23/21 A2988 RMK AO2 T02290209
KRPH 202250Z AUTO 11009KT 10SM CLR 23/21 A2987 RMK AO2 P0001 T02260210
KRPH 202230Z AUTO 10011G16KT 10SM -RA SCT032 SCT042 SCT050 23/21 A2988 RMK AO2 P0001 T02250208
KRPH 202210Z AUTO 13005KT 10SM SCT050 SCT070 23/21 A2988 RMK AO2 T02340205
KRPH 202150Z AUTO 17005G14KT 10SM -RA SCT008 SCT024 BKN060 22/20 A2987 RMK AO2 P0004 T02240203
KRPH 202135Z AUTO 13012G23KT 3SM +RA SCT006 SCT019 BKN050 25/20 A2986 RMK AO2 P0004 T02480203
KRPH 202110Z AUTO 15009KT 10SM CLR 31/20 A2983 RMK AO2 T03110202
KRPH 202050Z AUTO 19008KT 140V200 10SM CLR 33/20 A2983 RMK AO2 T03270201
KRPH 202030Z AUTO 17006KT 10SM CLR 32/19 A2984 RMK AO2 T03240194
KRPH 202010Z AUTO 18008KT 130V200 10SM SCT050 SCT060 33/20 A2986 RMK AO2 T03250200
KRPH 201950Z AUTO 14010G14KT 10SM SCT050 33/20 A2987 RMK AO2 T03260203
KRPH 201930Z AUTO 17010G17KT 10SM SCT050 32/20 A2988 RMK AO2 T03220200
KRPH 201910Z AUTO 18008G16KT 10SM SCT050 33/20 A2989 RMK AO2 T03260196
KRPH 201850Z AUTO 16006G18KT 130V210 10SM SCT046 SCT055 32/20 A2990 RMK AO2 T03230201
KRPH 201830Z AUTO 17008G15KT 120V200 10SM SCT046 SCT100 32/21 A2990 RMK AO2 T03180205
KRPH 201810Z AUTO 15008G15KT 120V180 10SM SCT046 32/21 A2991 RMK AO2 T03150206
KRPH 201750Z AUTO 18007KT 10SM SCT042 32/21 A2992 RMK AO2 T03190209 10319 20230
KRPH 201730Z AUTO 17004KT 10SM SCT042 31/21 A2993 RMK AO2 T03080211
KRPH 201710Z AUTO 19007G15KT 10SM SCT038 30/21 A2994 RMK AO2 T03030211
KRPH 201650Z AUTO 18006KT 10SM SCT038 SCT044 30/21 A2994 RMK AO2 T03020213
KRPH 201630Z AUTO 17007KT 10SM CLR 30/22 A2995 RMK AO2 T03030218
KRPH 201610Z AUTO 19007KT 10SM CLR 30/22 A2996 RMK AO2 T02950216
KRPH 201550Z AUTO 19007G14KT 10SM CLR 29/22 A2996 RMK AO2 T02890218
KRPH 201530Z AUTO 19008KT 10SM CLR 29/22 A2996 RMK AO2 T02870220
KRPH 201510Z AUTO 19005KT 10SM CLR 28/22 A2995 RMK AO2 T02830220
KRPH 201450Z AUTO 19006KT 10SM CLR 28/22 A2995 RMK AO2 T02750220
KRPH 201430Z AUTO 20005KT 10SM CLR 27/22 A2995 RMK AO2 T02660220
KRPH 201410Z AUTO 16004KT 10SM CLR 26/22 A2995 RMK AO2 T02560220
KRPH 201350Z AUTO 18005KT 10SM CLR 25/22 A2994 RMK AO2 T02490219
KRPH 201330Z AUTO 19005KT 10SM CLR 24/22 A2994 RMK AO2 T02410216
KRPH 201310Z AUTO 19004KT 10SM CLR 24/22 A2993 RMK AO2 T02370215
KRPH 201250Z AUTO 17004KT 10SM CLR 24/21 A2993 RMK AO2 T02350214
KRPH 201230Z AUTO 18004KT 10SM CLR 23/21 A2993 RMK AO2 T02300212
KRPH 201210Z AUTO 17003KT 10SM CLR 23/21 A2992 RMK AO2 T02300211
KRPH 201150Z AUTO 17004KT 10SM CLR 23/21 A2992 RMK AO2 T02320211 10257 20232
KRPH 201130Z AUTO 16004KT 10SM CLR 24/21 A2991 RMK AO2 T02350210
KRPH 201110Z AUTO 16005KT 10SM CLR 24/21 A2991 RMK AO2 T02350209
KRPH 201055Z AUTO 16003KT 10SM CLR 24/21 A2990 RMK AO2 T02360207
KRPH 201030Z AUTO 17004KT 10SM CLR 24/21 A2991 RMK AO2 T02370206
KRPH 201010Z AUTO 00000KT 10SM CLR 24/21 A2990 RMK AO2 T02380205
KRPH 200950Z AUTO 17005KT 10SM CLR 24/21 A2990 RMK AO2 T02400205
KRPH 200930Z AUTO 17004KT 10SM CLR 24/21 A2990 RMK AO2 T02420205
KRPH 200910Z AUTO 14005KT 10SM CLR 24/21 A2990 RMK AO2 T02410205
KRPH 200850Z AUTO 14005KT 10SM CLR 24/21 A2991 RMK AO2 T02430205
KRPH 200830Z AUTO 15005KT 10SM CLR 24/21 A2991 RMK AO2 T02430205
KRPH 200810Z AUTO 14005KT 10SM CLR 24/21 A2991 RMK AO2 T02420205
KRPH 200750Z AUTO 15003KT 10SM CLR 24/21 A2992 RMK AO2 T02430205
KRPH 200730Z AUTO 14005KT 10SM CLR 25/21 A2993 RMK AO2 T02470205
KRPH 200710Z AUTO 14004KT 10SM CLR 25/20 A2993 RMK AO2 T02500203
KRPH 200650Z AUTO 16003KT 10SM CLR 25/20 A2993 RMK AO2 T02510203
KRPH 200630Z AUTO 16003KT 10SM CLR 25/20 A2993 RMK AO2 T02530203
KRPH 200610Z AUTO 16005KT 10SM CLR 26/20 A2992 RMK AO2 T02560202
KRPH 200550Z AUTO 15005KT 10SM CLR 26/20 A2993 RMK AO2 T02570202 10314 20257 403400197
KRPH 200530Z AUTO 15005KT 10SM CLR 26/20 A2993 RMK AO2 T02600201